Roncesvalles Navarra

latitud = 43° 00' 31''N | longitud = 001° 19' 32''W
940 metros sobre el nivel del mar | datos mensuales

Fecha, hora, temperatura, viento dirección y velocidad, humedad y presión.

  • 22-11-2017 09:00:00 | 8.90°C | Este |3.00 km/h | 47.00% | 0.00 hPa
  • 22-11-2017 08:00:00 | 6.30°C | Nordeste |3.00 km/h | 56.00% | 0.00 hPa
  • 22-11-2017 07:00:00 | 5.80°C | Norte |2.00 km/h | 58.00% | 0.00 hPa
  • 22-11-2017 06:00:00 | 4.80°C | Noroeste |2.00 km/h | 65.00% | 0.00 hPa
  • 22-11-2017 05:00:00 | 5.20°C | Calma |0.00 km/h | 63.00% | 0.00 hPa
  • 22-11-2017 04:00:00 | 4.70°C | Norte |3.00 km/h | 67.00% | 0.00 hPa
  • 22-11-2017 03:00:00 | 3.90°C | Sudoeste |2.00 km/h | 72.00% | 0.00 hPa
  • 22-11-2017 02:00:00 | 7.00°C | Calma |0.00 km/h | 59.00% | 0.00 hPa
  • 22-11-2017 01:00:00 | 7.20°C | Nordeste |3.00 km/h | 59.00% | 0.00 hPa
  • 22-11-2017 00:00:00 | 7.20°C | Calma |0.00 km/h | 58.00% | 0.00 hPa
  • 21-11-2017 23:00:00 | 7.70°C | Calma |0.00 km/h | 57.00% | 0.00 hPa
  • 21-11-2017 22:00:00 | 7.40°C | Este |5.00 km/h | 60.00% | 0.00 hPa
  • 21-11-2017 21:00:00 | 5.90°C | Calma |0.00 km/h | 70.00% | 0.00 hPa
  • 21-11-2017 20:00:00 | 6.20°C | Calma |0.00 km/h | 69.00% | 0.00 hPa
  • 21-11-2017 19:00:00 | 7.80°C | Calma |0.00 km/h | 59.00% | 0.00 hPa
  • 21-11-2017 18:00:00 | 9.30°C | Noroeste |2.00 km/h | 56.00% | 0.00 hPa
  • 21-11-2017 17:00:00 | 13.10°C | Sudoeste |3.00 km/h | 45.00% | 0.00 hPa
  • 21-11-2017 16:00:00 | 16.60°C | Sudoeste |3.00 km/h | 38.00% | 0.00 hPa
  • 21-11-2017 15:00:00 | 16.90°C | Sudoeste |4.00 km/h | 41.00% | 0.00 hPa
  • 21-11-2017 14:00:00 | 16.50°C | Sur |6.00 km/h | 41.00% | 0.00 hPa
  • 21-11-2017 13:00:00 | 15.40°C | Sur |5.00 km/h | 40.00% | 0.00 hPa
  • 21-11-2017 12:00:00 | 14.10°C | Sur |3.00 km/h | 47.00% | 0.00 hPa
  • 21-11-2017 11:00:00 | 12.60°C | Sur |2.00 km/h | 64.00% | 0.00 hPa
  • 21-11-2017 10:00:00 | 8.50°C | Calma |0.00 km/h | 76.00% | 0.00 hPa